Kalkar, Germany

7:06 AM CEST on July 06, 2015 (GMT +0200)
Wemmershof | | Change Station
CLOSE
Current Station
Personal Weather Station
Location: Uedem, NORDRHEIN-WESTFALEN
Elevation: 138 ft
Nearby Weather Stations

Elev 138 ft 51.71 °N, 6.27 °E | Updated 52 seconds ago

Overcast
Overcast
57.9 °F
Feels Like 57.9 °F
N
12.0
Wind Variable Wind from SW
Gusts 12.0 mph

Today
High -- | Low -- °F
--% Chance of Precip.
Yesterday
High -- | Low -- °F
Precip. -- in
5:24 AM 9:54 PM
Waning Gibbous, 79% visible
Pressure 30.12 in
Visibility 6.2 miles
Clouds Mostly Cloudy 900 ft
Overcast 1000 ft
Dew Point 54 °F
Humidity 88%
Rainfall 0.00 in
Snow Depth Not available.
UV 0 out of 12
Pollen Not available.
Air Quality Not available.
Flu Activity Not available.
METAR EHVK 060455Z AUTO 23009KT 9999 BKN009 OVC010 14/12 Q1020 GRN

More Conditions Fewer Conditions

Pressure 30.12 in
Visibility 6.2 miles
Clouds Mostly Cloudy 900 ft
Overcast 1000 ft
Dew Point 54 °F
Humidity 88%
Rainfall 0.00 in
Snow Depth Not available.
UV 0 out of 12
Pollen Not available.
Air Quality Not available.
Flu Activity Not available.
METAR EHVK 060455Z AUTO 23009KT 9999 BKN009 OVC010 14/12 Q1020 GRN

More Conditions Fewer Conditions

10-Day Weather Forecast

×

Almanac

Astronomy

Jul. 06, 2015 Rise Set
Actual Time
Civil Twilight
Nautical Twilight
Astronomical Twilight
Moon
Length of Visible Light
Length of Day
Tomorrow will be .
, % of the Moon is Illuminated

Today's Extremes

Country Highs Country Lows

Community

WunderPhotos

Upload Photos

1,835,487 photos uploaded!

WunderBlogs® & News

Nearby

Air Quality

  Air Quality AQ Index Pollutant
Not available.

Snow Depth

Station Depth Elevation

Earthquake Activity

City Distance Mag. Time & Date
Minimum magnitude displayed is 2.5.

Coastal Water Temperatures

Place Temperature

Stations

Nearby Weather Stations

Station Location Temp. Windchill Dew Point Humidity Wind Precip. Elev Updated Type